Terminal Aerodrome Forecast
Issued by NWS

Home | Current Version | Previous Version | Text Only | Print | Product List | Glossary On
Versions: 1 2 3 4 5 6 7 8 9 10 11 12
000
FTUS41 KRNK 191136
TAFLWB
TAF
KLWB 191136Z 1912/2012 07005KT P6SM OVC200
     FM191600 08007KT P6SM SCT050 OVC200
     FM200200 10006KT P6SM BKN250=

USA.gov is the U.S. government's official web portal to all federal, state and local government web resources and services.